Culbertson, NE (69024)

7:37 AM CDT on July 23, 2016 (GMT -0500)
KNEMCCOO2 | | Change Station
Active Advisory: Heat Advisory Active Notice: Public Information Statement

Elev 2609 ft 40.21 °N, 100.64 °W | Updated 5 minutes ago

Partly Cloudy
Partly Cloudy
74.1 °F
Feels Like 75 °F
N
0.0
Wind Variable Wind from South
Gusts 0.0 mph

Today
High -- | Low -- °F
--% Chance of Precip.
Yesterday
High -- | Low -- °F
Precip. -- in
Pressure 29.76 in
Visibility 10.0 miles
Clouds Few 8500 ft
Few 12000 ft
Heat Index 75 °F
Dew Point 66 °F
Humidity 78%
Rainfall 0.16 in
Snow Depth Not available.
6:33 AM 9:05 PM
Waning Gibbous, 85% visible
METAR KMCK 231153Z AUTO 16016G22KT 10SM FEW085 FEW120 25/17 A2986 RMK AO2 RAB44E53 SLP078 P0000 60009 70009 T02500172 10250 20211 56022
Pressure 29.76 in
Visibility 10.0 miles
Clouds Few 8500 ft
Few 12000 ft
Heat Index 75 °F
Dew Point 66 °F
Humidity 78%
Rainfall 0.16 in
Snow Depth Not available.
6:33 AM 9:05 PM
Waning Gibbous, 85% visible
METAR KMCK 231153Z AUTO 16016G22KT 10SM FEW085 FEW120 25/17 A2986 RMK AO2 RAB44E53 SLP078 P0000 60009 70009 T02500172 10250 20211 56022

10-Day Weather Forecast

Almanac

Astronomy

Jul. 23, 2016 Rise Set
Actual Time
Civil Twilight
Nautical Twilight
Astronomical Twilight
Moon
Length of Visible Light
Length of Day
Tomorrow will be .
, % of the Moon is Illuminated

Today's Extremes

State Highs State Lows

Community

WunderPhotos

Upload Photos

1,926,815 photos uploaded!

WunderBlog® & News

Nearby

Air Quality

  Air Quality AQ Index Pollutant
Not available.

Snow Depth

Station Depth Elevation

Earthquake Activity

City Distance Mag. Time & Date
Minimum magnitude displayed is 2.5.

Coastal Water Temperatures

Place Temperature

Stations

Nearby Weather Stations

Station Location Temp. Windchill Dew Point Humidity Wind Precip. Elev Updated Type
                   

Watches & Warnings

Heat Advisory
Issued: 5:52 AM CDT Jul. 23, 2016 – National Weather Service

... Heat advisory remains in effect until 8 PM CDT this evening...

* heat index values... up to 105.

* Timing/duration... heat index values will be the highest
between 1 PM CDT and 6 PM CDT.

Precautionary/preparedness actions...

Take extra precautions if you work or spend time outside. When
possible... reschedule strenuous activities to early morning or
evening. Know the signs and symptoms of heat exhaustion and heat
stroke. Wear light weight and loose fitting clothing when
possible and drink plenty of water.

To reduce risk during outdoor work... the occupational safety and
health administration recommends scheduling frequent rest breaks
in shaded or air conditioned environments. Anyone overcome by
heat should be moved into a cool and shaded location. Heat stroke
is an emergency... call 9 1 1.